Time;durP1;ratioP1;P1;durP2;ratioP2;P2;SDS_P1;SDS_P2;PMS_P1;PMS_P2;Temp;Humidity;BMP_temperature;BMP_pressure;BME280_temperature;BME280_humidity;BME280_pressure;Samples;Min_cycle;Max_cycle;Signal;HPM_P1;HPM_P2
2023/10/07 00:02:30;;;;;;;19.13;12.90;;;;;;;;;;5053358;28;20485;-75
2023/10/07 00:05:00;;;;;;;16.63;12.10;;;;;;;;;;5058800;28;20469;-75
2023/10/07 00:07:31;;;;;;;18.87;12.70;;;;;;;;;;5056074;28;20449;-75
2023/10/07 00:10:03;;;;;;;22.23;14.17;;;;;;;;;;5066284;28;20548;-75
2023/10/07 00:12:30;;;;;;;17.80;14.27;;;;;;;;;;5073452;28;20460;-75
2023/10/07 00:14:57;;;;;;;18.70;13.37;;;;;;;;;;5060153;28;20539;-75
2023/10/07 00:17:24;;;;;;;17.33;13.60;;;;;;;;;;5061794;28;20452;-75
2023/10/07 00:19:52;;;;;;;15.93;12.33;;;;;;;;;;5065889;28;20462;-75
2023/10/07 00:22:19;;;;;;;16.70;11.30;;;;;;;;;;5057148;28;20958;-75
2023/10/07 00:24:48;;;;;;;14.57;11.40;;;;;;;;;;5061900;28;20510;-75
2023/10/07 00:27:26;;;;;;;14.13;11.50;;;;;;;;;;5061711;28;20817;-75
2023/10/07 00:29:59;;;;;;;21.20;13.03;;;;;;;;;;5057496;28;20582;-75
2023/10/07 00:32:30;;;;;;;18.50;11.63;;;;;;;;;;5064736;28;20451;-75
2023/10/07 00:35:00;;;;;;;15.63;12.27;;;;;;;;;;5073127;28;20957;-75
2023/10/07 00:37:29;;;;;;;16.70;11.93;;;;;;;;;;5073317;28;20513;-75
2023/10/07 00:40:09;;;;;;;14.90;10.93;;;;;;;;;;5073118;28;20970;-75
2023/10/07 00:42:39;;;;;;;13.77;10.10;;;;;;;;;;5072984;28;20818;-75
2023/10/07 00:45:14;;;;;;;15.90;10.67;;;;;;;;;;5064911;28;20976;-75
2023/10/07 00:47:41;;;;;;;11.97;9.43;;;;;;;;;;5064828;28;20452;-75
2023/10/07 00:50:10;;;;;;;13.03;10.00;;;;;;;;;;5064321;28;20502;-75
2023/10/07 00:52:48;;;;;;;13.50;10.03;;;;;;;;;;5062264;28;20461;-75
2023/10/07 00:55:22;;;;;;;12.67;9.50;;;;;;;;;;5068575;28;20809;-75
2023/10/07 00:57:53;;;;;;;12.23;9.60;;;;;;;;;;5061374;28;20479;-75
2023/10/07 01:00:40;;;;;;;11.03;9.50;;;;;;;;;;5069229;28;20476;-75
2023/10/07 01:03:17;;;;;;;16.20;9.53;;;;;;;;;;5067602;28;20890;-75
2023/10/07 01:05:55;;;;;;;17.23;9.37;;;;;;;;;;5053658;28;20488;-75
2023/10/07 01:08:27;;;;;;;14.20;8.83;;;;;;;;;;5052796;28;20456;-75
2023/10/07 01:11:06;;;;;;;11.63;9.10;;;;;;;;;;5064483;28;20531;-75
2023/10/07 01:13:35;;;;;;;19.83;8.93;;;;;;;;;;5070876;28;20459;-75
2023/10/07 01:16:06;;;;;;;11.93;8.60;;;;;;;;;;5052637;28;20461;-75
2023/10/07 01:18:38;;;;;;;11.40;8.70;;;;;;;;;;5070962;28;20484;-75
2023/10/07 01:21:08;;;;;;;9.67;8.70;;;;;;;;;;5072974;28;20479;-75
2023/10/07 01:23:37;;;;;;;11.47;8.30;;;;;;;;;;5062648;28;20963;-75
2023/10/07 01:26:14;;;;;;;12.37;8.97;;;;;;;;;;5068230;28;20952;-75
2023/10/07 01:28:43;;;;;;;12.13;8.70;;;;;;;;;;5073936;28;20436;-75
2023/10/07 01:31:12;;;;;;;11.10;8.50;;;;;;;;;;5063197;28;20888;-75
2023/10/07 01:33:45;;;;;;;13.57;8.70;;;;;;;;;;5076376;28;20496;-75
2023/10/07 01:36:18;;;;;;;13.77;9.53;;;;;;;;;;5076782;28;20452;-75
2023/10/07 01:38:51;;;;;;;10.43;8.87;;;;;;;;;;5064828;28;20460;-75
2023/10/07 01:41:19;;;;;;;14.63;8.63;;;;;;;;;;5064672;28;20937;-75
2023/10/07 01:43:56;;;;;;;13.70;9.30;;;;;;;;;;5059591;28;20896;-75
2023/10/07 01:46:27;;;;;;;12.00;8.03;;;;;;;;;;5068027;28;20440;-75
2023/10/07 01:48:55;;;;;;;10.50;8.43;;;;;;;;;;5063046;28;20471;-75
2023/10/07 01:51:23;;;;;;;12.03;9.00;;;;;;;;;;5064396;28;20487;-75
2023/10/07 01:53:56;;;;;;;15.73;9.33;;;;;;;;;;5064414;28;20531;-75
2023/10/07 01:56:23;;;;;;;12.17;9.50;;;;;;;;;;5064112;28;20456;-75
2023/10/07 01:58:50;;;;;;;12.90;9.97;;;;;;;;;;5068141;28;20458;-75
2023/10/07 02:01:19;;;;;;;12.60;9.80;;;;;;;;;;5068069;28;20480;-75
2023/10/07 02:03:46;;;;;;;13.47;9.60;;;;;;;;;;5076124;28;20538;-75
2023/10/07 02:06:18;;;;;;;17.20;9.87;;;;;;;;;;5069038;28;20884;-75
2023/10/07 02:08:45;;;;;;;17.30;9.13;;;;;;;;;;5066969;28;20909;-75
2023/10/07 02:11:17;;;;;;;10.27;8.53;;;;;;;;;;5060359;28;20496;-75
2023/10/07 02:13:46;;;;;;;14.03;9.83;;;;;;;;;;5067009;28;20455;-75
2023/10/07 02:16:16;;;;;;;13.13;10.87;;;;;;;;;;5075796;28;20997;-75
2023/10/07 02:18:47;;;;;;;10.90;9.10;;;;;;;;;;5058910;28;20519;-75
2023/10/07 02:21:20;;;;;;;13.90;9.80;;;;;;;;;;5067122;28;20472;-75
2023/10/07 02:23:49;;;;;;;12.77;9.70;;;;;;;;;;5072305;28;20930;-75
2023/10/07 02:26:19;;;;;;;13.17;10.00;;;;;;;;;;5063738;28;20464;-75
2023/10/07 02:28:50;;;;;;;13.37;8.60;;;;;;;;;;5066695;28;20436;-75
2023/10/07 02:31:19;;;;;;;15.20;10.63;;;;;;;;;;5059527;28;20917;-75
2023/10/07 02:33:46;;;;;;;17.47;9.90;;;;;;;;;;5058468;28;20786;-75
2023/10/07 02:36:27;;;;;;;11.43;8.60;;;;;;;;;;5067892;28;20467;-75
2023/10/07 02:38:54;;;;;;;14.43;9.80;;;;;;;;;;5067965;28;20929;-75
2023/10/07 02:41:24;;;;;;;13.03;8.93;;;;;;;;;;5058733;28;20978;-75
2023/10/07 02:43:51;;;;;;;12.40;10.83;;;;;;;;;;5067352;28;20479;-75
2023/10/07 02:46:32;;;;;;;10.37;9.27;;;;;;;;;;5066586;28;20464;-75
2023/10/07 02:49:09;;;;;;;14.63;8.87;;;;;;;;;;5075119;28;20446;-75
2023/10/07 02:51:39;;;;;;;14.83;9.03;;;;;;;;;;5074711;28;20859;-75
2023/10/07 02:54:16;;;;;;;13.40;9.10;;;;;;;;;;5066719;28;20455;-75
2023/10/07 02:56:46;;;;;;;13.23;9.30;;;;;;;;;;5063841;28;20471;-75
2023/10/07 02:59:27;;;;;;;10.23;8.50;;;;;;;;;;5070191;28;20806;-75
2023/10/07 03:02:19;;;;;;;14.20;8.57;;;;;;;;;;5059409;28;20467;-75
2023/10/07 03:04:58;;;;;;;13.53;9.40;;;;;;;;;;5063258;28;20985;-75
2023/10/07 03:07:26;;;;;;;14.53;9.10;;;;;;;;;;5063052;28;20823;-75
2023/10/07 03:10:04;;;;;;;15.30;12.10;;;;;;;;;;5066852;28;20484;-75
2023/10/07 03:12:36;;;;;;;14.77;9.93;;;;;;;;;;5058019;28;20436;-75
2023/10/07 03:15:20;;;;;;;14.77;9.80;;;;;;;;;;5068866;28;20907;-75
2023/10/07 03:17:47;;;;;;;12.70;9.50;;;;;;;;;;5066189;28;20467;-75
2023/10/07 03:20:28;;;;;;;15.07;9.27;;;;;;;;;;5065884;28;20869;-75
2023/10/07 03:23:14;;;;;;;11.63;9.20;;;;;;;;;;5066973;28;20478;-75
2023/10/07 03:26:05;;;;;;;10.90;8.50;;;;;;;;;;5073963;28;20447;-75
2023/10/07 03:28:36;;;;;;;18.00;12.57;;;;;;;;;;5074015;28;20460;-75
2023/10/07 03:31:08;;;;;;;12.03;9.60;;;;;;;;;;5065636;28;20499;-75
2023/10/07 03:33:44;;;;;;;12.87;9.67;;;;;;;;;;5063963;28;20448;-75
2023/10/07 03:36:30;;;;;;;9.93;8.57;;;;;;;;;;5060851;28;20842;-75
2023/10/07 03:39:10;;;;;;;15.53;9.23;;;;;;;;;;5065888;28;20443;-75
2023/10/07 03:41:37;;;;;;;12.30;8.43;;;;;;;;;;5065620;28;20958;-75
2023/10/07 03:44:06;;;;;;;11.60;7.83;;;;;;;;;;5073469;28;20550;-75
2023/10/07 03:46:34;;;;;;;14.93;11.20;;;;;;;;;;5063711;28;20451;-75
2023/10/07 03:49:06;;;;;;;13.10;8.90;;;;;;;;;;5066965;28;20462;-75
2023/10/07 03:51:35;;;;;;;13.10;8.90;;;;;;;;;;5065451;28;20495;-75
2023/10/07 03:54:04;;;;;;;12.37;9.83;;;;;;;;;;5065368;28;20481;-75
2023/10/07 03:56:31;;;;;;;12.40;8.70;;;;;;;;;;5057145;28;20459;-75
2023/10/07 03:58:59;;;;;;;14.13;8.20;;;;;;;;;;5065140;28;20828;-75
2023/10/07 04:01:28;;;;;;;13.97;9.97;;;;;;;;;;5057099;28;20474;-75
2023/10/07 04:03:59;;;;;;;15.20;9.27;;;;;;;;;;5060581;28;20817;-75
2023/10/07 04:06:30;;;;;;;12.40;9.37;;;;;;;;;;5062020;28;20459;-75
2023/10/07 04:09:05;;;;;;;11.40;8.60;;;;;;;;;;5060348;28;20467;-75
2023/10/07 04:11:33;;;;;;;11.33;9.10;;;;;;;;;;5070924;28;20498;-75
2023/10/07 04:14:07;;;;;;;14.47;10.00;;;;;;;;;;5068240;28;20540;-75
2023/10/07 04:16:36;;;;;;;15.00;9.10;;;;;;;;;;5062900;28;21010;-75
2023/10/07 04:19:30;;;;;;;12.17;9.53;;;;;;;;;;5059234;28;20887;-75
2023/10/07 04:21:57;;;;;;;15.90;9.57;;;;;;;;;;5053363;28;20478;-75
2023/10/07 04:24:28;;;;;;;12.40;8.70;;;;;;;;;;5061148;28;20457;-75
2023/10/07 04:27:02;;;;;;;10.67;8.83;;;;;;;;;;5061343;28;20526;-75
2023/10/07 04:29:30;;;;;;;11.97;8.57;;;;;;;;;;5070464;28;20456;-75
2023/10/07 04:32:05;;;;;;;11.00;8.17;;;;;;;;;;5060166;28;20875;-75
2023/10/07 04:34:36;;;;;;;10.60;7.80;;;;;;;;;;5069331;28;20545;-75
2023/10/07 04:37:14;;;;;;;12.20;8.73;;;;;;;;;;5058572;28;20455;-75
2023/10/07 04:42:22;;;;;;;12.67;8.17;;;;;;;;;;5064108;28;20965;-75
2023/10/07 04:45:21;;;;;;;12.20;10.00;;;;;;;;;;5072926;28;20451;-75
2023/10/07 04:47:57;;;;;;;14.37;8.00;;;;;;;;;;5053115;28;20456;-75
2023/10/07 04:50:33;;;;;;;11.23;8.57;;;;;;;;;;5069262;28;20524;-75
2023/10/07 04:53:03;;;;;;;13.33;9.70;;;;;;;;;;5058156;28;20439;-75
2023/10/07 04:55:32;;;;;;;11.10;8.30;;;;;;;;;;5071615;28;20543;-75
2023/10/07 04:57:58;;;;;;;15.13;10.47;;;;;;;;;;5066023;28;20452;-75
2023/10/07 05:00:36;;;;;;;10.23;7.83;;;;;;;;;;5072872;28;20532;-75
2023/10/07 05:03:14;;;;;;;10.37;9.07;;;;;;;;;;5063130;28;20828;-75
2023/10/07 05:05:43;;;;;;;11.50;8.30;;;;;;;;;;5067475;28;20491;-75
2023/10/07 05:08:11;;;;;;;15.40;9.80;;;;;;;;;;5068545;28;20960;-75
2023/10/07 05:10:38;;;;;;;12.80;8.40;;;;;;;;;;5067924;28;20525;-75
2023/10/07 05:13:06;;;;;;;14.07;10.00;;;;;;;;;;5076639;28;20451;-75
2023/10/07 05:15:34;;;;;;;13.30;9.53;;;;;;;;;;5068150;28;20457;-75
2023/10/07 05:18:02;;;;;;;12.67;8.37;;;;;;;;;;5076522;28;20453;-75
2023/10/07 05:20:33;;;;;;;12.93;8.73;;;;;;;;;;5076175;28;20989;-75
2023/10/07 05:23:02;;;;;;;10.23;9.13;;;;;;;;;;5067848;28;20447;-75
2023/10/07 05:25:30;;;;;;;9.73;7.37;;;;;;;;;;5067032;28;20453;-75
2023/10/07 05:27:57;;;;;;;11.07;9.30;;;;;;;;;;5067169;28;20467;-75
2023/10/07 05:30:24;;;;;;;12.00;8.07;;;;;;;;;;5058466;28;20998;-75
2023/10/07 05:32:52;;;;;;;14.70;8.77;;;;;;;;;;5067415;28;20463;-75
2023/10/07 05:35:19;;;;;;;17.40;10.83;;;;;;;;;;5074934;28;20464;-75
2023/10/07 05:37:49;;;;;;;14.40;9.47;;;;;;;;;;5058548;28;20451;-75
2023/10/07 05:40:19;;;;;;;11.27;8.50;;;;;;;;;;5068019;28;20998;-75
2023/10/07 05:42:46;;;;;;;12.80;9.77;;;;;;;;;;5066887;28;20505;-75
2023/10/07 05:45:15;;;;;;;11.00;8.53;;;;;;;;;;5075242;28;20447;-75
2023/10/07 05:47:45;;;;;;;16.30;7.90;;;;;;;;;;5064145;28;20460;-75
2023/10/07 05:50:13;;;;;;;11.60;8.43;;;;;;;;;;5061652;28;20451;-75
2023/10/07 05:52:40;;;;;;;12.40;9.43;;;;;;;;;;5064187;28;20497;-75
2023/10/07 05:55:10;;;;;;;9.13;7.30;;;;;;;;;;5054868;28;20464;-75
2023/10/07 05:57:37;;;;;;;12.97;7.07;;;;;;;;;;5073143;28;20551;-75
2023/10/07 06:00:09;;;;;;;11.83;7.83;;;;;;;;;;5074556;28;20497;-75
2023/10/07 06:02:36;;;;;;;10.03;6.83;;;;;;;;;;5066383;28;20945;-75
2023/10/07 06:05:06;;;;;;;11.33;6.73;;;;;;;;;;5069073;28;20452;-75
2023/10/07 06:07:35;;;;;;;9.47;6.83;;;;;;;;;;5064235;28;20510;-75
2023/10/07 06:10:03;;;;;;;8.97;6.50;;;;;;;;;;5060586;28;20523;-75
2023/10/07 06:12:33;;;;;;;9.57;6.60;;;;;;;;;;5063116;28;20519;-75
2023/10/07 06:15:00;;;;;;;8.23;5.97;;;;;;;;;;5074594;28;20460;-75
2023/10/07 06:17:27;;;;;;;10.20;6.03;;;;;;;;;;5074337;28;20513;-75
2023/10/07 06:19:56;;;;;;;10.97;8.30;;;;;;;;;;5061738;28;20464;-76
2023/10/07 06:22:23;;;;;;;13.13;8.77;;;;;;;;;;5062696;28;20469;-75
2023/10/07 06:24:52;;;;;;;11.37;8.90;;;;;;;;;;5067238;28;20444;-78
2023/10/07 06:27:21;;;;;;;8.77;6.97;;;;;;;;;;5067101;28;20454;-77
2023/10/07 06:29:51;;;;;;;9.57;6.50;;;;;;;;;;5058492;28;20561;-77
2023/10/07 06:32:25;;;;;;;7.97;6.47;;;;;;;;;;5059891;28;20524;-78
2023/10/07 06:34:54;;;;;;;7.30;5.70;;;;;;;;;;5068911;28;20447;-78
2023/10/07 06:37:28;;;;;;;6.73;4.50;;;;;;;;;;5076354;28;20543;-78
2023/10/07 06:39:57;;;;;;;6.10;4.80;;;;;;;;;;5064459;28;20974;-78
2023/10/07 06:42:24;;;;;;;4.93;4.43;;;;;;;;;;5056715;28;20931;-78
2023/10/07 06:44:56;;;;;;;5.63;4.43;;;;;;;;;;5076711;28;20448;-78
2023/10/07 06:47:29;;;;;;;7.80;5.60;;;;;;;;;;5076381;28;20451;-77
2023/10/07 06:49:58;;;;;;;10.57;7.23;;;;;;;;;;5075899;28;20805;-78
2023/10/07 06:52:26;;;;;;;8.00;5.70;;;;;;;;;;5075353;28;20531;-77
2023/10/07 06:54:54;;;;;;;7.23;6.43;;;;;;;;;;5075913;28;20516;-78
2023/10/07 06:57:21;;;;;;;8.80;7.27;;;;;;;;;;5075696;28;20463;-78
2023/10/07 06:59:53;;;;;;;13.83;9.33;;;;;;;;;;5072457;28;20509;-78
2023/10/07 07:02:34;;;;;;;9.90;8.07;;;;;;;;;;5063428;28;20525;-78
2023/10/07 07:05:02;;;;;;;8.67;7.77;;;;;;;;;;5070490;28;20499;-78
2023/10/07 07:07:29;;;;;;;10.10;6.97;;;;;;;;;;5055766;28;20938;-79
2023/10/07 07:09:59;;;;;;;9.00;5.87;;;;;;;;;;5067941;28;20567;-79
2023/10/07 07:12:26;;;;;;;8.70;6.30;;;;;;;;;;5075754;28;20495;-78
2023/10/07 07:15:04;;;;;;;7.70;6.20;;;;;;;;;;5074894;28;20478;-78
2023/10/07 07:17:43;;;;;;;6.03;5.40;;;;;;;;;;5074373;28;20497;-78
2023/10/07 07:20:29;;;;;;;11.07;7.07;;;;;;;;;;5074158;28;20596;-78
2023/10/07 07:22:58;;;;;;;6.90;6.07;;;;;;;;;;5066993;28;20456;-79
2023/10/07 07:25:36;;;;;;;9.43;5.40;;;;;;;;;;5074844;28;20527;-78
2023/10/07 07:28:04;;;;;;;10.07;5.47;;;;;;;;;;5062128;28;20451;-78
2023/10/07 07:30:31;;;;;;;6.63;5.53;;;;;;;;;;5072858;28;20463;-79
2023/10/07 07:33:06;;;;;;;5.10;4.60;;;;;;;;;;5075378;28;20551;-78
2023/10/07 07:35:43;;;;;;;8.00;5.50;;;;;;;;;;5075748;28;20465;-79
2023/10/07 07:38:26;;;;;;;9.10;5.10;;;;;;;;;;5075624;28;20458;-79
2023/10/07 07:41:03;;;;;;;7.53;5.77;;;;;;;;;;5071946;28;20508;-79
2023/10/07 07:43:30;;;;;;;8.93;6.40;;;;;;;;;;5072774;28;20451;-79
2023/10/07 07:46:11;;;;;;;9.17;6.10;;;;;;;;;;5069116;28;20447;-79
2023/10/07 07:48:40;;;;;;;7.60;6.60;;;;;;;;;;5076418;28;20464;-79
2023/10/07 07:51:09;;;;;;;9.07;7.30;;;;;;;;;;5076421;28;20499;-78
2023/10/07 07:53:36;;;;;;;6.60;4.40;;;;;;;;;;5068042;28;20466;-79
2023/10/07 07:56:08;;;;;;;9.13;6.10;;;;;;;;;;5075916;28;20985;-79
2023/10/07 07:58:37;;;;;;;11.53;6.17;;;;;;;;;;5067411;28;20506;-78
2023/10/07 08:01:06;;;;;;;14.40;5.57;;;;;;;;;;5075042;28;20521;-79
2023/10/07 08:03:38;;;;;;;8.20;6.17;;;;;;;;;;5077255;28;20478;-80
2023/10/07 08:06:11;;;;;;;8.70;5.67;;;;;;;;;;5076759;28;20493;-80
2023/10/07 08:08:38;;;;;;;10.70;6.27;;;;;;;;;;5065620;28;20935;-80
2023/10/07 08:11:07;;;;;;;7.83;5.67;;;;;;;;;;5064027;28;20523;-79
2023/10/07 08:13:34;;;;;;;6.87;5.00;;;;;;;;;;5074112;28;20475;-79
2023/10/07 08:16:05;;;;;;;6.20;4.23;;;;;;;;;;5062187;28;20463;-77
2023/10/07 08:18:32;;;;;;;6.50;5.17;;;;;;;;;;5067129;28;20920;-80
2023/10/07 08:21:07;;;;;;;8.30;4.33;;;;;;;;;;5077576;28;20487;-80
2023/10/07 08:23:37;;;;;;;7.03;5.30;;;;;;;;;;5078042;28;20451;-80
2023/10/07 08:26:10;;;;;;;7.90;5.93;;;;;;;;;;5064466;28;20950;-79
2023/10/07 08:28:42;;;;;;;6.40;5.20;;;;;;;;;;5073347;28;20480;-80
2023/10/07 08:31:19;;;;;;;7.87;5.93;;;;;;;;;;5065553;28;20562;-80
2023/10/07 08:33:54;;;;;;;8.00;4.73;;;;;;;;;;5074981;28;20571;-79
2023/10/07 08:36:27;;;;;;;7.30;4.80;;;;;;;;;;5055919;28;20943;-79
2023/10/07 08:38:58;;;;;;;8.33;5.37;;;;;;;;;;5069602;28;20491;-80
2023/10/07 08:41:28;;;;;;;7.40;5.10;;;;;;;;;;5068355;28;20472;-79
2023/10/07 08:44:03;;;;;;;7.37;3.93;;;;;;;;;;5055885;28;20449;-78
2023/10/07 08:46:33;;;;;;;7.30;5.00;;;;;;;;;;5056168;28;20459;-79
2023/10/07 08:49:05;;;;;;;7.03;5.10;;;;;;;;;;5055947;28;20510;-79
2023/10/07 08:51:39;;;;;;;6.90;4.60;;;;;;;;;;5072794;28;20498;-81
2023/10/07 08:54:10;;;;;;;5.93;4.97;;;;;;;;;;5056122;28;20536;-80
2023/10/07 08:56:40;;;;;;;8.63;4.70;;;;;;;;;;5066937;28;20448;-80
2023/10/07 08:59:12;;;;;;;8.70;4.33;;;;;;;;;;5070290;28;20453;-80
2023/10/07 09:01:43;;;;;;;6.03;4.20;;;;;;;;;;5066302;28;20476;-80
2023/10/07 09:04:10;;;;;;;7.20;4.90;;;;;;;;;;5075536;28;20824;-80
2023/10/07 09:06:45;;;;;;;7.67;4.67;;;;;;;;;;5057750;28;20504;-81
2023/10/07 09:09:14;;;;;;;8.90;4.43;;;;;;;;;;5063120;28;20472;-79
2023/10/07 09:11:41;;;;;;;6.40;4.07;;;;;;;;;;5059094;28;20500;-80
2023/10/07 09:14:10;;;;;;;9.70;4.67;;;;;;;;;;5075574;28;20934;-78
2023/10/07 09:16:38;;;;;;;7.30;4.60;;;;;;;;;;5076133;28;20505;-81
2023/10/07 09:19:10;;;;;;;5.90;4.90;;;;;;;;;;5076839;28;20558;-80
2023/10/07 09:21:38;;;;;;;7.47;4.83;;;;;;;;;;5076566;28;20483;-80
2023/10/07 09:24:13;;;;;;;6.00;4.13;;;;;;;;;;5075713;28;20452;-80
2023/10/07 09:26:56;;;;;;;8.17;5.43;;;;;;;;;;5066967;28;20467;-79
2023/10/07 09:29:25;;;;;;;8.07;4.23;;;;;;;;;;5076113;28;20448;-79
2023/10/07 09:31:59;;;;;;;9.40;4.50;;;;;;;;;;5068505;28;20511;-80
2023/10/07 09:34:31;;;;;;;10.13;4.83;;;;;;;;;;5075607;28;20896;-78
2023/10/07 09:37:08;;;;;;;10.87;5.80;;;;;;;;;;5075196;28;20447;-79
2023/10/07 09:39:43;;;;;;;9.10;4.33;;;;;;;;;;5074655;28;20451;-78
2023/10/07 09:42:26;;;;;;;6.53;3.97;;;;;;;;;;5068114;28;20473;-78
2023/10/07 09:44:56;;;;;;;8.90;4.40;;;;;;;;;;5062273;28;20472;-78
2023/10/07 09:47:24;;;;;;;6.50;4.10;;;;;;;;;;5056242;28;20536;-78
2023/10/07 09:49:57;;;;;;;6.40;4.40;;;;;;;;;;5070843;28;20861;-80
2023/10/07 09:52:29;;;;;;;4.30;3.60;;;;;;;;;;5078928;28;20985;-80
2023/10/07 09:55:18;;;;;;;9.23;4.10;;;;;;;;;;5066531;28;20467;-80
2023/10/07 09:57:56;;;;;;;8.17;5.50;;;;;;;;;;5071318;28;20460;-80
2023/10/07 10:00:40;;;;;;;6.40;4.17;;;;;;;;;;5084996;28;20486;-80
2023/10/07 10:03:28;;;;;;;5.23;3.30;;;;;;;;;;5060948;28;20429;-80
2023/10/07 10:06:03;;;;;;;5.03;3.57;;;;;;;;;;5060429;28;20463;-80
2023/10/07 10:08:45;;;;;;;6.87;3.97;;;;;;;;;;5077367;28;20868;-80
2023/10/07 10:11:30;;;;;;;11.70;3.87;;;;;;;;;;5078848;28;20471;-80
2023/10/07 10:14:16;;;;;;;6.73;3.57;;;;;;;;;;5080114;28;20532;-80
2023/10/07 10:16:46;;;;;;;7.17;4.13;;;;;;;;;;5076888;28;20945;-79
2023/10/07 10:19:19;;;;;;;4.17;3.73;;;;;;;;;;5059513;28;20503;-80
2023/10/07 10:21:47;;;;;;;7.20;4.67;;;;;;;;;;5062878;28;20495;-79
2023/10/07 10:24:15;;;;;;;5.53;3.30;;;;;;;;;;5072345;28;20539;-80
2023/10/07 10:26:44;;;;;;;8.27;4.70;;;;;;;;;;5070005;28;20478;-80
2023/10/07 10:29:20;;;;;;;5.30;3.70;;;;;;;;;;5079579;28;20448;-80
2023/10/07 10:31:51;;;;;;;6.67;4.47;;;;;;;;;;5071688;28;20491;-79
2023/10/07 10:34:20;;;;;;;4.90;3.27;;;;;;;;;;5070819;28;20456;-80
2023/10/07 10:36:49;;;;;;;4.87;3.73;;;;;;;;;;5079966;28;20464;-80
2023/10/07 10:39:25;;;;;;;8.57;4.30;;;;;;;;;;5079492;28;20459;-81
2023/10/07 10:41:52;;;;;;;6.13;3.43;;;;;;;;;;5075510;28;20979;-79
2023/10/07 10:44:21;;;;;;;6.50;3.60;;;;;;;;;;5059738;28;20449;-80
2023/10/07 10:46:49;;;;;;;4.87;3.30;;;;;;;;;;5059860;28;20465;-80
2023/10/07 10:49:17;;;;;;;4.90;3.20;;;;;;;;;;5058832;28;20461;-79
2023/10/07 10:51:46;;;;;;;4.67;3.53;;;;;;;;;;5062017;28;20480;-80
2023/10/07 10:54:18;;;;;;;5.30;3.67;;;;;;;;;;5079869;28;20456;-80
2023/10/07 10:56:48;;;;;;;5.20;3.57;;;;;;;;;;5079263;28;20875;-80
2023/10/07 10:59:16;;;;;;;6.70;4.13;;;;;;;;;;5064049;28;20483;-81
2023/10/07 11:01:45;;;;;;;4.83;3.23;;;;;;;;;;5069371;28;20486;-80
2023/10/07 11:04:19;;;;;;;7.60;4.70;;;;;;;;;;5079113;28;20475;-80
2023/10/07 11:06:50;;;;;;;10.53;4.43;;;;;;;;;;5079218;28;20527;-80
2023/10/07 11:09:18;;;;;;;5.93;3.40;;;;;;;;;;5078752;28;20474;-80
2023/10/07 11:11:48;;;;;;;4.80;3.73;;;;;;;;;;5078835;28;20478;-80
2023/10/07 11:14:20;;;;;;;4.73;3.50;;;;;;;;;;5078939;28;20452;-80
2023/10/07 11:16:50;;;;;;;5.37;3.33;;;;;;;;;;5075598;28;20491;-80
2023/10/07 11:19:18;;;;;;;6.37;3.70;;;;;;;;;;5058653;28;20482;-80
2023/10/07 11:21:48;;;;;;;8.73;3.90;;;;;;;;;;5074874;28;20500;-81
2023/10/07 11:24:24;;;;;;;5.63;3.60;;;;;;;;;;5066610;28;20966;-80
2023/10/07 11:26:52;;;;;;;11.70;4.50;;;;;;;;;;5070216;28;20526;-80
2023/10/07 11:29:19;;;;;;;6.57;3.90;;;;;;;;;;5061840;28;20449;-80
2023/10/07 11:31:47;;;;;;;7.33;3.10;;;;;;;;;;5057217;28;20464;-80
2023/10/07 11:34:16;;;;;;;5.43;4.00;;;;;;;;;;5065291;28;20565;-80
2023/10/07 11:36:48;;;;;;;5.63;3.27;;;;;;;;;;5067212;28;20460;-80
2023/10/07 11:39:15;;;;;;;4.97;3.67;;;;;;;;;;5058408;28;20947;-80
2023/10/07 11:41:42;;;;;;;5.07;3.00;;;;;;;;;;5069605;28;20480;-81
2023/10/07 11:44:13;;;;;;;4.30;3.40;;;;;;;;;;5078788;28;20459;-79
2023/10/07 11:46:41;;;;;;;3.90;3.13;;;;;;;;;;5075557;28;20451;-79
2023/10/07 11:49:08;;;;;;;3.97;3.13;;;;;;;;;;5063449;28;20510;-80
2023/10/07 11:51:37;;;;;;;5.20;3.30;;;;;;;;;;5062599;28;20460;-79
2023/10/07 11:54:05;;;;;;;5.00;4.13;;;;;;;;;;5078349;28;20936;-79
2023/10/07 11:56:32;;;;;;;4.40;3.30;;;;;;;;;;5077385;28;20552;-80
2023/10/07 11:59:02;;;;;;;4.00;3.40;;;;;;;;;;5078376;28;20913;-79
2023/10/07 12:01:29;;;;;;;10.23;4.33;;;;;;;;;;5069806;28;20476;-80
2023/10/07 12:03:57;;;;;;;4.47;3.87;;;;;;;;;;5071108;28;20455;-79
2023/10/07 12:06:24;;;;;;;6.10;3.70;;;;;;;;;;5062267;28;20460;-79
2023/10/07 12:08:53;;;;;;;4.47;3.53;;;;;;;;;;5073440;28;20472;-80
2023/10/07 12:11:20;;;;;;;5.03;3.70;;;;;;;;;;5065469;28;20470;-79
2023/10/07 12:13:47;;;;;;;6.50;3.87;;;;;;;;;;5077185;28;20575;-79
2023/10/07 12:16:16;;;;;;;5.70;3.33;;;;;;;;;;5078313;28;20444;-79
2023/10/07 12:18:45;;;;;;;6.27;3.40;;;;;;;;;;5077764;28;20954;-80
2023/10/07 12:21:12;;;;;;;5.30;3.30;;;;;;;;;;5078577;28;20483;-80
2023/10/07 12:23:41;;;;;;;6.57;3.30;;;;;;;;;;5059305;28;20445;-79
2023/10/07 12:26:13;;;;;;;5.17;3.40;;;;;;;;;;5072612;28;20444;-79
2023/10/07 12:28:41;;;;;;;5.57;4.00;;;;;;;;;;5070072;28;20531;-79
2023/10/07 12:31:12;;;;;;;7.10;3.97;;;;;;;;;;5062885;28;20519;-79
2023/10/07 12:33:40;;;;;;;4.87;3.80;;;;;;;;;;5057948;28;20519;-79
2023/10/07 12:36:12;;;;;;;7.40;4.20;;;;;;;;;;5057659;28;21004;-79
2023/10/07 12:38:39;;;;;;;9.40;5.63;;;;;;;;;;5059804;28;20514;-80
2023/10/07 12:41:07;;;;;;;6.33;4.10;;;;;;;;;;5077512;28;20497;-80
2023/10/07 12:43:36;;;;;;;8.10;3.73;;;;;;;;;;5069827;28;21012;-80
2023/10/07 12:46:03;;;;;;;5.93;2.83;;;;;;;;;;5077796;28;20981;-80
2023/10/07 12:48:30;;;;;;;3.77;2.57;;;;;;;;;;5076970;28;20455;-79
2023/10/07 12:50:59;;;;;;;6.23;3.93;;;;;;;;;;5077681;28;20475;-78
2023/10/07 12:53:26;;;;;;;5.03;2.97;;;;;;;;;;5077361;28;20498;-79
2023/10/07 12:55:54;;;;;;;8.30;3.30;;;;;;;;;;5077099;28;20453;-79
2023/10/07 12:58:26;;;;;;;4.17;3.30;;;;;;;;;;5059737;28;20456;-78
2023/10/07 13:00:55;;;;;;;3.40;2.40;;;;;;;;;;5068981;28;20467;-79
2023/10/07 13:03:22;;;;;;;5.20;3.50;;;;;;;;;;5067782;28;20471;-79
2023/10/07 13:05:49;;;;;;;4.90;3.40;;;;;;;;;;5058037;28;20453;-79
2023/10/07 13:08:16;;;;;;;5.13;3.40;;;;;;;;;;5058214;28;20444;-82
2023/10/07 13:10:44;;;;;;;4.87;2.83;;;;;;;;;;5060313;28;20477;-78
2023/10/07 13:13:13;;;;;;;6.83;3.70;;;;;;;;;;5075526;28;20494;-78
2023/10/07 13:15:41;;;;;;;5.40;3.73;;;;;;;;;;5073842;28;20961;-79
2023/10/07 13:18:12;;;;;;;4.17;3.10;;;;;;;;;;5056448;28;20465;-78
2023/10/07 13:20:40;;;;;;;4.23;3.17;;;;;;;;;;5074143;28;20888;-80
2023/10/07 13:23:10;;;;;;;7.73;3.30;;;;;;;;;;5078186;28;20452;-79
2023/10/07 13:25:38;;;;;;;2.60;2.23;;;;;;;;;;5077852;28;20498;-79
2023/10/07 13:28:06;;;;;;;4.60;3.00;;;;;;;;;;5058134;28;20463;-78
2023/10/07 13:30:33;;;;;;;4.17;2.97;;;;;;;;;;5066791;28;20477;-79
2023/10/07 13:33:01;;;;;;;3.73;2.53;;;;;;;;;;5059271;28;20527;-79
2023/10/07 13:35:29;;;;;;;5.00;3.00;;;;;;;;;;5076392;28;20824;-78
2023/10/07 13:37:56;;;;;;;7.80;2.93;;;;;;;;;;5078711;28;20456;-79
2023/10/07 13:40:24;;;;;;;4.33;3.30;;;;;;;;;;5070209;28;20879;-78
2023/10/07 13:42:52;;;;;;;3.80;2.83;;;;;;;;;;5070659;28;20439;-78
2023/10/07 13:45:21;;;;;;;4.77;3.13;;;;;;;;;;5078600;28;20818;-79
2023/10/07 13:47:48;;;;;;;8.30;3.47;;;;;;;;;;5062254;28;20482;-78
2023/10/07 13:50:17;;;;;;;4.50;2.60;;;;;;;;;;5069611;28;20793;-78
2023/10/07 13:52:50;;;;;;;4.00;3.10;;;;;;;;;;5075046;28;20454;-79
2023/10/07 13:55:54;;;;;;;13.73;3.50;;;;;;;;;;5066360;28;20453;-78
2023/10/07 13:58:21;;;;;;;7.30;3.03;;;;;;;;;;5073995;28;20528;-79
2023/10/07 14:00:51;;;;;;;4.27;2.90;;;;;;;;;;5075294;28;20484;-79
2023/10/07 14:03:20;;;;;;;4.53;2.50;;;;;;;;;;5073437;28;20857;-78
2023/10/07 14:05:50;;;;;;;6.70;3.10;;;;;;;;;;5070064;28;20447;-78
2023/10/07 14:08:20;;;;;;;4.77;2.97;;;;;;;;;;5062845;28;20506;-78
2023/10/07 14:10:50;;;;;;;6.13;2.67;;;;;;;;;;5068592;28;20519;-78
2023/10/07 14:13:19;;;;;;;6.37;3.27;;;;;;;;;;5070092;28;20515;-78
2023/10/07 14:15:49;;;;;;;3.87;2.40;;;;;;;;;;5069401;28;20499;-78
2023/10/07 14:18:19;;;;;;;5.97;3.37;;;;;;;;;;5070022;28;20474;-78
2023/10/07 14:20:51;;;;;;;5.47;2.80;;;;;;;;;;5078470;28;20483;-78
2023/10/07 14:23:20;;;;;;;6.83;4.33;;;;;;;;;;5071675;28;20452;-78
2023/10/07 14:25:49;;;;;;;7.37;3.13;;;;;;;;;;5067196;28;20456;-78
2023/10/07 14:28:16;;;;;;;6.60;4.50;;;;;;;;;;5072875;28;20588;-78
2023/10/07 14:30:44;;;;;;;5.87;3.53;;;;;;;;;;5066903;28;20525;-78
2023/10/07 14:33:12;;;;;;;4.30;3.17;;;;;;;;;;5071786;28;20900;-79
2023/10/07 14:35:40;;;;;;;5.23;3.70;;;;;;;;;;5075288;28;20458;-79
2023/10/07 14:38:09;;;;;;;7.10;3.40;;;;;;;;;;5071539;28;20452;-78
2023/10/07 14:40:38;;;;;;;4.83;3.17;;;;;;;;;;5060057;28;20571;-78
2023/10/07 14:43:05;;;;;;;7.67;3.90;;;;;;;;;;5063691;28;20452;-78
2023/10/07 14:45:34;;;;;;;4.17;2.80;;;;;;;;;;5066424;28;20953;-78
2023/10/07 14:48:02;;;;;;;6.40;3.40;;;;;;;;;;5069019;28;20992;-78
2023/10/07 14:50:29;;;;;;;5.03;3.57;;;;;;;;;;5068822;28;20902;-78
2023/10/07 14:52:57;;;;;;;7.23;3.60;;;;;;;;;;5074088;28;20832;-78
2023/10/07 14:55:25;;;;;;;9.10;3.30;;;;;;;;;;5065921;28;20457;-77
2023/10/07 14:57:53;;;;;;;6.23;3.87;;;;;;;;;;5078430;28;20979;-78
2023/10/07 15:00:20;;;;;;;8.17;4.90;;;;;;;;;;5069707;28;20473;-78
2023/10/07 15:02:48;;;;;;;7.27;4.57;;;;;;;;;;5077803;28;20460;-79